sensor_id;sensor_type;location;lat;lon;timestamp;P1;durP1;ratioP1;P2;durP2;ratioP2
69917;SDS011;57203;42.672;23.334;2023-07-13T00:00:12;7.2;;;4.0;;
69917;SDS011;57203;42.672;23.334;2023-07-13T00:01:12;7.3;;;4.4;;
69917;SDS011;57203;42.672;23.334;2023-07-13T00:02:12;10.5;;;4.2;;
69917;SDS011;57203;42.672;23.334;2023-07-13T00:03:12;10.5;;;3.9;;
69917;SDS011;57203;42.672;23.334;2023-07-13T00:04:13;6.8;;;4.5;;
69917;SDS011;57203;42.672;23.334;2023-07-13T00:05:13;8.8;;;4.4;;
69917;SDS011;57203;42.672;23.334;2023-07-13T00:06:13;8.9;;;4.5;;
69917;SDS011;57203;42.672;23.334;2023-07-13T00:07:13;6.3;;;3.9;;
69917;SDS011;57203;42.672;23.334;2023-07-13T00:08:13;6.3;;;4.3;;
69917;SDS011;57203;42.672;23.334;2023-07-13T00:09:14;8.5;;;4.4;;
69917;SDS011;57203;42.672;23.334;2023-07-13T00:10:14;9.7;;;4.1;;
69917;SDS011;57203;42.672;23.334;2023-07-13T00:11:14;14.2;;;4.6;;
69917;SDS011;57203;42.672;23.334;2023-07-13T00:12:22;10.0;;;4.3;;
69917;SDS011;57203;42.672;23.334;2023-07-13T00:13:15;9.2;;;3.9;;
69917;SDS011;57203;42.672;23.334;2023-07-13T00:14:15;7.8;;;4.1;;
69917;SDS011;57203;42.672;23.334;2023-07-13T00:15:17;7.8;;;4.4;;
69917;SDS011;57203;42.672;23.334;2023-07-13T00:16:15;7.5;;;4.1;;
69917;SDS011;57203;42.672;23.334;2023-07-13T00:17:16;7.2;;;4.5;;
69917;SDS011;57203;42.672;23.334;2023-07-13T00:18:16;7.3;;;4.4;;
69917;SDS011;57203;42.672;23.334;2023-07-13T00:19:16;10.3;;;4.2;;
69917;SDS011;57203;42.672;23.334;2023-07-13T00:20:17;6.6;;;4.3;;
69917;SDS011;57203;42.672;23.334;2023-07-13T00:21:17;6.9;;;5.0;;
69917;SDS011;57203;42.672;23.334;2023-07-13T00:22:17;8.1;;;4.4;;
69917;SDS011;57203;42.672;23.334;2023-07-13T00:23:17;8.1;;;4.6;;
69917;SDS011;57203;42.672;23.334;2023-07-13T00:24:18;9.9;;;4.2;;
69917;SDS011;57203;42.672;23.334;2023-07-13T00:25:18;9.6;;;5.1;;
69917;SDS011;57203;42.672;23.334;2023-07-13T00:26:18;9.3;;;4.1;;
69917;SDS011;57203;42.672;23.334;2023-07-13T00:27:18;6.6;;;4.4;;
69917;SDS011;57203;42.672;23.334;2023-07-13T00:28:18;7.2;;;5.6;;
69917;SDS011;57203;42.672;23.334;2023-07-13T00:29:19;9.1;;;5.3;;
69917;SDS011;57203;42.672;23.334;2023-07-13T00:30:19;9.1;;;4.4;;
69917;SDS011;57203;42.672;23.334;2023-07-13T00:32:20;7.7;;;4.6;;
69917;SDS011;57203;42.672;23.334;2023-07-13T00:34:21;6.8;;;4.7;;
69917;SDS011;57203;42.672;23.334;2023-07-13T00:36:21;9.0;;;4.8;;
69917;SDS011;57203;42.672;23.334;2023-07-13T00:37:21;8.6;;;4.7;;
69917;SDS011;57203;42.672;23.334;2023-07-13T00:40:22;7.3;;;5.3;;
69917;SDS011;57203;42.672;23.334;2023-07-13T00:41:22;7.0;;;4.7;;
69917;SDS011;57203;42.672;23.334;2023-07-13T00:42:22;7.0;;;5.1;;
69917;SDS011;57203;42.672;23.334;2023-07-13T00:43:23;8.2;;;5.2;;
69917;SDS011;57203;42.672;23.334;2023-07-13T00:44:23;9.5;;;5.3;;
69917;SDS011;57203;42.672;23.334;2023-07-13T00:46:25;9.6;;;5.4;;
69917;SDS011;57203;42.672;23.334;2023-07-13T00:47:23;7.9;;;4.9;;
69917;SDS011;57203;42.672;23.334;2023-07-13T00:48:25;7.9;;;5.0;;
69917;SDS011;57203;42.672;23.334;2023-07-13T00:49:25;10.2;;;4.9;;
69917;SDS011;57203;42.672;23.334;2023-07-13T00:50:24;7.0;;;5.3;;
69917;SDS011;57203;42.672;23.334;2023-07-13T00:51:28;7.0;;;4.9;;
69917;SDS011;57203;42.672;23.334;2023-07-13T00:52:25;10.4;;;4.6;;
69917;SDS011;57203;42.672;23.334;2023-07-13T00:53:25;11.6;;;4.7;;
69917;SDS011;57203;42.672;23.334;2023-07-13T00:54:28;9.0;;;4.2;;
69917;SDS011;57203;42.672;23.334;2023-07-13T00:55:25;7.7;;;4.7;;
69917;SDS011;57203;42.672;23.334;2023-07-13T00:57:26;10.4;;;4.4;;
69917;SDS011;57203;42.672;23.334;2023-07-13T00:59:27;9.5;;;4.6;;
69917;SDS011;57203;42.672;23.334;2023-07-13T01:00:27;9.5;;;4.3;;
69917;SDS011;57203;42.672;23.334;2023-07-13T01:02:27;7.9;;;4.4;;
69917;SDS011;57203;42.672;23.334;2023-07-13T01:03:28;7.9;;;4.6;;
69917;SDS011;57203;42.672;23.334;2023-07-13T01:04:28;8.1;;;5.1;;
69917;SDS011;57203;42.672;23.334;2023-07-13T01:05:28;10.0;;;5.0;;
69917;SDS011;57203;42.672;23.334;2023-07-13T01:06:28;10.7;;;5.5;;
69917;SDS011;57203;42.672;23.334;2023-07-13T01:07:28;9.5;;;4.5;;
69917;SDS011;57203;42.672;23.334;2023-07-13T01:08:29;9.7;;;4.6;;
69917;SDS011;57203;42.672;23.334;2023-07-13T01:12:30;8.8;;;5.0;;
69917;SDS011;57203;42.672;23.334;2023-07-13T01:13:30;11.3;;;4.8;;
69917;SDS011;57203;42.672;23.334;2023-07-13T01:14:30;8.5;;;4.9;;
69917;SDS011;57203;42.672;23.334;2023-07-13T01:15:34;9.4;;;5.0;;
69917;SDS011;57203;42.672;23.334;2023-07-13T01:16:32;9.3;;;5.4;;
69917;SDS011;57203;42.672;23.334;2023-07-13T01:17:31;10.5;;;4.8;;
69917;SDS011;57203;42.672;23.334;2023-07-13T01:18:31;10.1;;;5.2;;
69917;SDS011;57203;42.672;23.334;2023-07-13T01:19:33;11.3;;;5.1;;
69917;SDS011;57203;42.672;23.334;2023-07-13T01:20:32;8.5;;;4.8;;
69917;SDS011;57203;42.672;23.334;2023-07-13T01:22:32;9.1;;;5.1;;
69917;SDS011;57203;42.672;23.334;2023-07-13T01:23:33;8.2;;;5.3;;
69917;SDS011;57203;42.672;23.334;2023-07-13T01:24:33;7.7;;;5.1;;
69917;SDS011;57203;42.672;23.334;2023-07-13T01:25:33;8.8;;;5.0;;
69917;SDS011;57203;42.672;23.334;2023-07-13T01:26:33;9.0;;;5.3;;
69917;SDS011;57203;42.672;23.334;2023-07-13T01:27:34;9.0;;;4.8;;
69917;SDS011;57203;42.672;23.334;2023-07-13T01:28:34;9.0;;;5.1;;
69917;SDS011;57203;42.672;23.334;2023-07-13T01:29:35;9.5;;;5.0;;
69917;SDS011;57203;42.672;23.334;2023-07-13T01:30:34;9.5;;;5.2;;
69917;SDS011;57203;42.672;23.334;2023-07-13T01:31:35;8.7;;;5.0;;
69917;SDS011;57203;42.672;23.334;2023-07-13T01:32:35;6.7;;;5.2;;
69917;SDS011;57203;42.672;23.334;2023-07-13T01:33:36;9.5;;;5.5;;
69917;SDS011;57203;42.672;23.334;2023-07-13T01:34:35;9.3;;;5.2;;
69917;SDS011;57203;42.672;23.334;2023-07-13T01:35:36;8.1;;;5.4;;
69917;SDS011;57203;42.672;23.334;2023-07-13T01:36:36;8.1;;;5.8;;
69917;SDS011;57203;42.672;23.334;2023-07-13T01:37:36;8.9;;;5.0;;
69917;SDS011;57203;42.672;23.334;2023-07-13T01:38:36;8.9;;;5.4;;
69917;SDS011;57203;42.672;23.334;2023-07-13T01:39:37;12.2;;;5.3;;
69917;SDS011;57203;42.672;23.334;2023-07-13T01:40:37;8.5;;;5.4;;
69917;SDS011;57203;42.672;23.334;2023-07-13T01:41:37;6.5;;;5.0;;
69917;SDS011;57203;42.672;23.334;2023-07-13T01:42:38;6.5;;;5.8;;
69917;SDS011;57203;42.672;23.334;2023-07-13T01:43:38;9.5;;;5.7;;
69917;SDS011;57203;42.672;23.334;2023-07-13T01:44:38;11.7;;;4.9;;
69917;SDS011;57203;42.672;23.334;2023-07-13T01:45:38;6.9;;;5.2;;
69917;SDS011;57203;42.672;23.334;2023-07-13T01:46:38;7.8;;;5.8;;
69917;SDS011;57203;42.672;23.334;2023-07-13T01:47:39;8.1;;;5.0;;
69917;SDS011;57203;42.672;23.334;2023-07-13T01:48:39;6.6;;;5.6;;
69917;SDS011;57203;42.672;23.334;2023-07-13T01:49:39;11.6;;;5.2;;
69917;SDS011;57203;42.672;23.334;2023-07-13T01:51:40;11.2;;;5.3;;
69917;SDS011;57203;42.672;23.334;2023-07-13T01:52:40;12.1;;;5.4;;
69917;SDS011;57203;42.672;23.334;2023-07-13T01:53:40;6.8;;;5.1;;
69917;SDS011;57203;42.672;23.334;2023-07-13T01:54:40;6.8;;;5.7;;
69917;SDS011;57203;42.672;23.334;2023-07-13T01:56:41;9.0;;;6.4;;
69917;SDS011;57203;42.672;23.334;2023-07-13T01:57:41;9.9;;;5.4;;
69917;SDS011;57203;42.672;23.334;2023-07-13T01:58:42;9.6;;;5.6;;
69917;SDS011;57203;42.672;23.334;2023-07-13T01:59:42;12.1;;;5.7;;
69917;SDS011;57203;42.672;23.334;2023-07-13T02:00:42;9.3;;;5.2;;
69917;SDS011;57203;42.672;23.334;2023-07-13T02:01:42;8.4;;;5.5;;
69917;SDS011;57203;42.672;23.334;2023-07-13T02:02:43;7.6;;;5.6;;
69917;SDS011;57203;42.672;23.334;2023-07-13T02:03:43;9.1;;;5.2;;
69917;SDS011;57203;42.672;23.334;2023-07-13T02:04:43;9.1;;;5.0;;
69917;SDS011;57203;42.672;23.334;2023-07-13T02:05:43;11.0;;;5.4;;
69917;SDS011;57203;42.672;23.334;2023-07-13T02:06:43;10.0;;;5.3;;
69917;SDS011;57203;42.672;23.334;2023-07-13T02:07:44;6.9;;;5.4;;
69917;SDS011;57203;42.672;23.334;2023-07-13T02:08:44;9.6;;;5.2;;
69917;SDS011;57203;42.672;23.334;2023-07-13T02:09:44;10.1;;;5.6;;
69917;SDS011;57203;42.672;23.334;2023-07-13T02:10:45;8.8;;;5.1;;
69917;SDS011;57203;42.672;23.334;2023-07-13T02:11:45;8.6;;;5.2;;
69917;SDS011;57203;42.672;23.334;2023-07-13T02:12:45;10.1;;;5.6;;
69917;SDS011;57203;42.672;23.334;2023-07-13T02:13:45;9.3;;;5.8;;
69917;SDS011;57203;42.672;23.334;2023-07-13T02:14:45;10.6;;;5.2;;
69917;SDS011;57203;42.672;23.334;2023-07-13T02:16:46;9.4;;;5.8;;
69917;SDS011;57203;42.672;23.334;2023-07-13T02:17:46;9.8;;;5.3;;
69917;SDS011;57203;42.672;23.334;2023-07-13T02:18:46;8.8;;;6.2;;
69917;SDS011;57203;42.672;23.334;2023-07-13T02:19:47;11.5;;;5.5;;
69917;SDS011;57203;42.672;23.334;2023-07-13T02:20:47;9.2;;;5.0;;
69917;SDS011;57203;42.672;23.334;2023-07-13T02:21:47;7.9;;;5.1;;
69917;SDS011;57203;42.672;23.334;2023-07-13T02:22:47;8.4;;;5.2;;
69917;SDS011;57203;42.672;23.334;2023-07-13T02:23:48;10.2;;;5.0;;
69917;SDS011;57203;42.672;23.334;2023-07-13T02:24:48;6.8;;;5.4;;
69917;SDS011;57203;42.672;23.334;2023-07-13T02:25:48;8.6;;;5.5;;
69917;SDS011;57203;42.672;23.334;2023-07-13T02:26:49;10.1;;;6.1;;
69917;SDS011;57203;42.672;23.334;2023-07-13T02:28:49;11.5;;;5.6;;
69917;SDS011;57203;42.672;23.334;2023-07-13T02:29:49;9.2;;;5.4;;
69917;SDS011;57203;42.672;23.334;2023-07-13T02:30:50;7.2;;;5.2;;
69917;SDS011;57203;42.672;23.334;2023-07-13T02:31:50;7.3;;;5.3;;
69917;SDS011;57203;42.672;23.334;2023-07-13T02:32:50;9.9;;;5.4;;
69917;SDS011;57203;42.672;23.334;2023-07-13T02:33:50;9.4;;;5.3;;
69917;SDS011;57203;42.672;23.334;2023-07-13T02:34:51;8.3;;;4.9;;
69917;SDS011;57203;42.672;23.334;2023-07-13T02:35:51;8.7;;;5.4;;
69917;SDS011;57203;42.672;23.334;2023-07-13T02:36:51;8.8;;;5.2;;
69917;SDS011;57203;42.672;23.334;2023-07-13T02:37:51;7.6;;;5.1;;
69917;SDS011;57203;42.672;23.334;2023-07-13T02:38:51;12.1;;;5.7;;
69917;SDS011;57203;42.672;23.334;2023-07-13T02:39:52;12.1;;;5.8;;
69917;SDS011;57203;42.672;23.334;2023-07-13T02:40:52;11.4;;;5.4;;
69917;SDS011;57203;42.672;23.334;2023-07-13T02:41:52;8.1;;;5.3;;
69917;SDS011;57203;42.672;23.334;2023-07-13T02:44:53;12.3;;;5.8;;
69917;SDS011;57203;42.672;23.334;2023-07-13T02:45:53;12.3;;;5.6;;
69917;SDS011;57203;42.672;23.334;2023-07-13T02:47:54;8.5;;;5.9;;
69917;SDS011;57203;42.672;23.334;2023-07-13T02:48:54;11.4;;;5.8;;
69917;SDS011;57203;42.672;23.334;2023-07-13T02:50:55;14.4;;;6.0;;
69917;SDS011;57203;42.672;23.334;2023-07-13T02:51:55;10.8;;;5.1;;
69917;SDS011;57203;42.672;23.334;2023-07-13T02:52:55;7.2;;;4.9;;
69917;SDS011;57203;42.672;23.334;2023-07-13T02:53:55;7.8;;;5.1;;
69917;SDS011;57203;42.672;23.334;2023-07-13T02:54:55;9.5;;;5.8;;
69917;SDS011;57203;42.672;23.334;2023-07-13T02:55:56;9.7;;;5.7;;
69917;SDS011;57203;42.672;23.334;2023-07-13T02:56:56;9.6;;;5.3;;
69917;SDS011;57203;42.672;23.334;2023-07-13T02:57:56;10.1;;;5.5;;
69917;SDS011;57203;42.672;23.334;2023-07-13T02:59:57;9.1;;;5.0;;
69917;SDS011;57203;42.672;23.334;2023-07-13T03:00:57;10.2;;;5.6;;
69917;SDS011;57203;42.672;23.334;2023-07-13T03:01:57;11.4;;;6.3;;
69917;SDS011;57203;42.672;23.334;2023-07-13T03:02:58;11.5;;;5.6;;
69917;SDS011;57203;42.672;23.334;2023-07-13T03:04:58;7.5;;;6.1;;
69917;SDS011;57203;42.672;23.334;2023-07-13T03:05:59;11.9;;;6.0;;
69917;SDS011;57203;42.672;23.334;2023-07-13T03:06:59;10.8;;;5.0;;
69917;SDS011;57203;42.672;23.334;2023-07-13T03:07:59;8.6;;;5.3;;
69917;SDS011;57203;42.672;23.334;2023-07-13T03:08:59;8.7;;;5.6;;
69917;SDS011;57203;42.672;23.334;2023-07-13T03:09:59;8.7;;;5.9;;
69917;SDS011;57203;42.672;23.334;2023-07-13T03:11:00;10.4;;;6.1;;
69917;SDS011;57203;42.672;23.334;2023-07-13T03:12:00;12.7;;;6.0;;
69917;SDS011;57203;42.672;23.334;2023-07-13T03:13:00;12.7;;;6.9;;
69917;SDS011;57203;42.672;23.334;2023-07-13T03:14:00;9.2;;;5.9;;
69917;SDS011;57203;42.672;23.334;2023-07-13T03:15:01;8.7;;;6.8;;
69917;SDS011;57203;42.672;23.334;2023-07-13T03:16:01;9.4;;;6.4;;
69917;SDS011;57203;42.672;23.334;2023-07-13T03:17:01;8.7;;;6.6;;
69917;SDS011;57203;42.672;23.334;2023-07-13T03:18:01;9.9;;;6.9;;
69917;SDS011;57203;42.672;23.334;2023-07-13T03:19:02;9.8;;;6.5;;
69917;SDS011;57203;42.672;23.334;2023-07-13T03:20:02;9.4;;;6.6;;
69917;SDS011;57203;42.672;23.334;2023-07-13T03:21:02;11.6;;;6.4;;
69917;SDS011;57203;42.672;23.334;2023-07-13T03:22:02;9.8;;;6.1;;
69917;SDS011;57203;42.672;23.334;2023-07-13T03:23:03;10.6;;;6.7;;
69917;SDS011;57203;42.672;23.334;2023-07-13T03:24:03;12.6;;;6.5;;
69917;SDS011;57203;42.672;23.334;2023-07-13T03:25:03;12.6;;;6.6;;
69917;SDS011;57203;42.672;23.334;2023-07-13T03:26:04;9.3;;;5.9;;
69917;SDS011;57203;42.672;23.334;2023-07-13T03:27:04;8.8;;;6.5;;
69917;SDS011;57203;42.672;23.334;2023-07-13T03:28:04;8.8;;;6.2;;
69917;SDS011;57203;42.672;23.334;2023-07-13T03:29:04;8.2;;;5.5;;
69917;SDS011;57203;42.672;23.334;2023-07-13T03:30:05;7.9;;;5.1;;
69917;SDS011;57203;42.672;23.334;2023-07-13T03:31:06;7.3;;;5.7;;
69917;SDS011;57203;42.672;23.334;2023-07-13T03:33:05;11.7;;;5.8;;
69917;SDS011;57203;42.672;23.334;2023-07-13T03:35:06;8.2;;;7.2;;
69917;SDS011;57203;42.672;23.334;2023-07-13T03:36:06;13.0;;;7.4;;
69917;SDS011;57203;42.672;23.334;2023-07-13T03:37:06;11.1;;;7.2;;
69917;SDS011;57203;42.672;23.334;2023-07-13T03:38:06;10.0;;;6.9;;
69917;SDS011;57203;42.672;23.334;2023-07-13T03:39:06;10.7;;;7.1;;
69917;SDS011;57203;42.672;23.334;2023-07-13T03:40:07;11.6;;;7.7;;
69917;SDS011;57203;42.672;23.334;2023-07-13T03:41:08;11.6;;;7.8;;
69917;SDS011;57203;42.672;23.334;2023-07-13T03:42:07;10.1;;;7.6;;
69917;SDS011;57203;42.672;23.334;2023-07-13T03:43:07;9.3;;;7.7;;
69917;SDS011;57203;42.672;23.334;2023-07-13T03:44:08;11.0;;;7.5;;
69917;SDS011;57203;42.672;23.334;2023-07-13T03:45:08;10.0;;;7.6;;
69917;SDS011;57203;42.672;23.334;2023-07-13T03:46:08;12.2;;;7.8;;
69917;SDS011;57203;42.672;23.334;2023-07-13T03:47:08;12.2;;;8.4;;
69917;SDS011;57203;42.672;23.334;2023-07-13T03:48:08;12.8;;;8.0;;
69917;SDS011;57203;42.672;23.334;2023-07-13T03:50:09;10.3;;;7.9;;
69917;SDS011;57203;42.672;23.334;2023-07-13T03:51:09;11.0;;;7.8;;
69917;SDS011;57203;42.672;23.334;2023-07-13T03:52:10;11.1;;;8.5;;
69917;SDS011;57203;42.672;23.334;2023-07-13T03:53:10;12.4;;;8.0;;
69917;SDS011;57203;42.672;23.334;2023-07-13T03:54:10;14.0;;;8.1;;
69917;SDS011;57203;42.672;23.334;2023-07-13T03:56:11;11.2;;;8.8;;
69917;SDS011;57203;42.672;23.334;2023-07-13T03:57:11;13.4;;;7.9;;
69917;SDS011;57203;42.672;23.334;2023-07-13T03:59:11;13.0;;;7.9;;
69917;SDS011;57203;42.672;23.334;2023-07-13T04:00:12;10.2;;;7.7;;
69917;SDS011;57203;42.672;23.334;2023-07-13T04:01:12;10.9;;;8.0;;
69917;SDS011;57203;42.672;23.334;2023-07-13T04:02:12;10.9;;;8.2;;
69917;SDS011;57203;42.672;23.334;2023-07-13T04:03:12;14.6;;;7.6;;
69917;SDS011;57203;42.672;23.334;2023-07-13T04:05:13;10.2;;;8.2;;
69917;SDS011;57203;42.672;23.334;2023-07-13T04:06:15;12.9;;;7.3;;
69917;SDS011;57203;42.672;23.334;2023-07-13T04:07:13;8.4;;;8.4;;
69917;SDS011;57203;42.672;23.334;2023-07-13T04:08:13;11.8;;;7.2;;
69917;SDS011;57203;42.672;23.334;2023-07-13T04:09:14;9.5;;;7.8;;
69917;SDS011;57203;42.672;23.334;2023-07-13T04:10:14;11.3;;;7.5;;
69917;SDS011;57203;42.672;23.334;2023-07-13T04:11:14;10.8;;;7.6;;
69917;SDS011;57203;42.672;23.334;2023-07-13T04:12:14;10.9;;;7.3;;
69917;SDS011;57203;42.672;23.334;2023-07-13T04:13:15;11.5;;;7.5;;
69917;SDS011;57203;42.672;23.334;2023-07-13T04:14:15;12.4;;;7.6;;
69917;SDS011;57203;42.672;23.334;2023-07-13T04:15:15;9.9;;;7.4;;
69917;SDS011;57203;42.672;23.334;2023-07-13T04:16:16;10.2;;;7.6;;
69917;SDS011;57203;42.672;23.334;2023-07-13T04:17:16;11.7;;;7.1;;
69917;SDS011;57203;42.672;23.334;2023-07-13T04:18:16;10.2;;;7.5;;
69917;SDS011;57203;42.672;23.334;2023-07-13T04:19:16;11.6;;;7.2;;
69917;SDS011;57203;42.672;23.334;2023-07-13T04:20:16;9.3;;;7.5;;
69917;SDS011;57203;42.672;23.334;2023-07-13T04:22:17;11.6;;;7.6;;
69917;SDS011;57203;42.672;23.334;2023-07-13T04:23:17;10.4;;;8.0;;
69917;SDS011;57203;42.672;23.334;2023-07-13T04:24:17;12.9;;;7.3;;
69917;SDS011;57203;42.672;23.334;2023-07-13T04:25:18;9.6;;;7.1;;
69917;SDS011;57203;42.672;23.334;2023-07-13T04:26:18;10.3;;;7.7;;
69917;SDS011;57203;42.672;23.334;2023-07-13T04:27:18;12.4;;;7.2;;
69917;SDS011;57203;42.672;23.334;2023-07-13T04:28:19;11.6;;;7.4;;
69917;SDS011;57203;42.672;23.334;2023-07-13T04:29:18;12.5;;;6.3;;
69917;SDS011;57203;42.672;23.334;2023-07-13T04:30:19;10.3;;;6.7;;
69917;SDS011;57203;42.672;23.334;2023-07-13T04:31:19;10.3;;;6.3;;
69917;SDS011;57203;42.672;23.334;2023-07-13T04:32:20;9.5;;;7.0;;
69917;SDS011;57203;42.672;23.334;2023-07-13T04:33:19;9.0;;;6.5;;
69917;SDS011;57203;42.672;23.334;2023-07-13T04:34:20;9.0;;;6.6;;
69917;SDS011;57203;42.672;23.334;2023-07-13T04:35:20;10.5;;;7.1;;
69917;SDS011;57203;42.672;23.334;2023-07-13T04:36:20;10.6;;;7.2;;
69917;SDS011;57203;42.672;23.334;2023-07-13T04:37:21;14.2;;;8.4;;
69917;SDS011;57203;42.672;23.334;2023-07-13T04:38:21;12.3;;;9.8;;
69917;SDS011;57203;42.672;23.334;2023-07-13T04:39:21;13.0;;;10.0;;
69917;SDS011;57203;42.672;23.334;2023-07-13T04:40:21;13.0;;;9.1;;
69917;SDS011;57203;42.672;23.334;2023-07-13T04:41:22;12.0;;;8.5;;
69917;SDS011;57203;42.672;23.334;2023-07-13T04:42:22;12.5;;;8.3;;
69917;SDS011;57203;42.672;23.334;2023-07-13T04:44:22;12.5;;;8.1;;
69917;SDS011;57203;42.672;23.334;2023-07-13T04:45:23;10.8;;;7.7;;
69917;SDS011;57203;42.672;23.334;2023-07-13T04:47:23;14.1;;;7.4;;
69917;SDS011;57203;42.672;23.334;2023-07-13T04:48:23;9.0;;;7.5;;
69917;SDS011;57203;42.672;23.334;2023-07-13T04:49:24;11.1;;;8.0;;
69917;SDS011;57203;42.672;23.334;2023-07-13T04:51:24;11.2;;;7.8;;
69917;SDS011;57203;42.672;23.334;2023-07-13T04:52:24;11.8;;;7.7;;
69917;SDS011;57203;42.672;23.334;2023-07-13T04:53:25;12.5;;;7.9;;
69917;SDS011;57203;42.672;23.334;2023-07-13T04:54:25;11.8;;;8.2;;
69917;SDS011;57203;42.672;23.334;2023-07-13T04:55:25;10.3;;;8.1;;
69917;SDS011;57203;42.672;23.334;2023-07-13T04:56:25;12.7;;;7.8;;
69917;SDS011;57203;42.672;23.334;2023-07-13T04:57:26;12.8;;;7.6;;
69917;SDS011;57203;42.672;23.334;2023-07-13T04:58:26;11.5;;;7.2;;
69917;SDS011;57203;42.672;23.334;2023-07-13T04:59:26;11.1;;;7.7;;
69917;SDS011;57203;42.672;23.334;2023-07-13T05:00:26;10.4;;;7.9;;
69917;SDS011;57203;42.672;23.334;2023-07-13T05:01:27;13.0;;;7.6;;
69917;SDS011;57203;42.672;23.334;2023-07-13T05:02:27;9.2;;;7.5;;
69917;SDS011;57203;42.672;23.334;2023-07-13T05:04:27;12.1;;;7.2;;
69917;SDS011;57203;42.672;23.334;2023-07-13T05:05:27;9.9;;;7.5;;
69917;SDS011;57203;42.672;23.334;2023-07-13T05:06:28;10.8;;;7.4;;
69917;SDS011;57203;42.672;23.334;2023-07-13T05:07:28;10.3;;;7.3;;
69917;SDS011;57203;42.672;23.334;2023-07-13T05:08:28;10.7;;;7.6;;
69917;SDS011;57203;42.672;23.334;2023-07-13T05:09:28;9.8;;;7.3;;
69917;SDS011;57203;42.672;23.334;2023-07-13T05:10:29;9.8;;;7.5;;
69917;SDS011;57203;42.672;23.334;2023-07-13T05:11:29;9.6;;;7.7;;
69917;SDS011;57203;42.672;23.334;2023-07-13T05:12:29;13.5;;;7.8;;
69917;SDS011;57203;42.672;23.334;2023-07-13T05:13:30;11.4;;;8.3;;
69917;SDS011;57203;42.672;23.334;2023-07-13T05:14:30;11.4;;;7.9;;
69917;SDS011;57203;42.672;23.334;2023-07-13T05:15:30;11.8;;;8.4;;
69917;SDS011;57203;42.672;23.334;2023-07-13T05:16:30;10.9;;;8.5;;
69917;SDS011;57203;42.672;23.334;2023-07-13T05:17:31;12.0;;;8.1;;
69917;SDS011;57203;42.672;23.334;2023-07-13T05:18:31;12.7;;;8.0;;
69917;SDS011;57203;42.672;23.334;2023-07-13T05:20:31;11.0;;;8.1;;
69917;SDS011;57203;42.672;23.334;2023-07-13T05:21:32;11.4;;;8.0;;
69917;SDS011;57203;42.672;23.334;2023-07-13T05:22:32;11.4;;;8.4;;
69917;SDS011;57203;42.672;23.334;2023-07-13T05:23:33;11.2;;;8.2;;
69917;SDS011;57203;42.672;23.334;2023-07-13T05:24:32;12.2;;;8.3;;
69917;SDS011;57203;42.672;23.334;2023-07-13T05:25:33;12.2;;;8.5;;
69917;SDS011;57203;42.672;23.334;2023-07-13T05:26:33;12.8;;;8.7;;
69917;SDS011;57203;42.672;23.334;2023-07-13T05:27:33;11.0;;;8.8;;
69917;SDS011;57203;42.672;23.334;2023-07-13T05:28:33;11.3;;;9.5;;
69917;SDS011;57203;42.672;23.334;2023-07-13T05:29:34;15.4;;;8.0;;
69917;SDS011;57203;42.672;23.334;2023-07-13T05:30:34;11.5;;;7.8;;
69917;SDS011;57203;42.672;23.334;2023-07-13T05:31:34;11.7;;;8.4;;
69917;SDS011;57203;42.672;23.334;2023-07-13T05:32:34;13.5;;;8.3;;
69917;SDS011;57203;42.672;23.334;2023-07-13T05:33:35;17.0;;;7.9;;
69917;SDS011;57203;42.672;23.334;2023-07-13T05:34:35;11.7;;;8.1;;
69917;SDS011;57203;42.672;23.334;2023-07-13T05:35:35;12.1;;;7.8;;
69917;SDS011;57203;42.672;23.334;2023-07-13T05:36:35;14.4;;;7.9;;
69917;SDS011;57203;42.672;23.334;2023-07-13T05:37:37;11.9;;;8.0;;
69917;SDS011;57203;42.672;23.334;2023-07-13T05:38:36;12.7;;;8.2;;
69917;SDS011;57203;42.672;23.334;2023-07-13T05:39:36;12.0;;;7.7;;
69917;SDS011;57203;42.672;23.334;2023-07-13T05:41:37;11.4;;;8.6;;
69917;SDS011;57203;42.672;23.334;2023-07-13T05:42:37;12.4;;;8.0;;
69917;SDS011;57203;42.672;23.334;2023-07-13T05:43:37;12.4;;;8.1;;
69917;SDS011;57203;42.672;23.334;2023-07-13T05:44:37;14.9;;;8.0;;
69917;SDS011;57203;42.672;23.334;2023-07-13T05:45:38;12.8;;;8.5;;
69917;SDS011;57203;42.672;23.334;2023-07-13T05:46:38;17.4;;;7.8;;
69917;SDS011;57203;42.672;23.334;2023-07-13T05:47:38;12.7;;;8.3;;
69917;SDS011;57203;42.672;23.334;2023-07-13T05:48:39;13.2;;;7.7;;
69917;SDS011;57203;42.672;23.334;2023-07-13T05:49:39;12.4;;;7.4;;
69917;SDS011;57203;42.672;23.334;2023-07-13T05:50:39;13.7;;;7.6;;
69917;SDS011;57203;42.672;23.334;2023-07-13T05:51:39;12.4;;;7.3;;
69917;SDS011;57203;42.672;23.334;2023-07-13T05:53:40;12.2;;;8.5;;
69917;SDS011;57203;42.672;23.334;2023-07-13T05:54:40;16.3;;;8.1;;
69917;SDS011;57203;42.672;23.334;2023-07-13T05:56:41;13.3;;;7.2;;
69917;SDS011;57203;42.672;23.334;2023-07-13T05:57:41;12.0;;;8.0;;
69917;SDS011;57203;42.672;23.334;2023-07-13T05:58:41;13.7;;;7.0;;
69917;SDS011;57203;42.672;23.334;2023-07-13T05:59:41;9.9;;;7.4;;
69917;SDS011;57203;42.672;23.334;2023-07-13T06:00:42;13.9;;;8.3;;
69917;SDS011;57203;42.672;23.334;2023-07-13T06:01:42;15.1;;;7.6;;
69917;SDS011;57203;42.672;23.334;2023-07-13T06:02:42;14.1;;;7.9;;
69917;SDS011;57203;42.672;23.334;2023-07-13T06:03:43;12.8;;;7.6;;
69917;SDS011;57203;42.672;23.334;2023-07-13T06:04:43;11.6;;;8.0;;
69917;SDS011;57203;42.672;23.334;2023-07-13T06:05:43;12.5;;;7.9;;
69917;SDS011;57203;42.672;23.334;2023-07-13T06:06:44;14.4;;;8.1;;
69917;SDS011;57203;42.672;23.334;2023-07-13T06:07:44;13.6;;;7.9;;
69917;SDS011;57203;42.672;23.334;2023-07-13T06:08:44;12.3;;;7.1;;
69917;SDS011;57203;42.672;23.334;2023-07-13T06:09:44;10.1;;;7.4;;
69917;SDS011;57203;42.672;23.334;2023-07-13T06:11:45;12.9;;;7.2;;
69917;SDS011;57203;42.672;23.334;2023-07-13T06:12:45;12.2;;;7.6;;
69917;SDS011;57203;42.672;23.334;2023-07-13T06:13:45;11.8;;;8.0;;
69917;SDS011;57203;42.672;23.334;2023-07-13T06:14:45;11.7;;;7.5;;
69917;SDS011;57203;42.672;23.334;2023-07-13T06:15:47;10.0;;;8.0;;
69917;SDS011;57203;42.672;23.334;2023-07-13T06:16:46;11.4;;;7.5;;
69917;SDS011;57203;42.672;23.334;2023-07-13T06:17:46;10.7;;;7.4;;
69917;SDS011;57203;42.672;23.334;2023-07-13T06:18:47;10.1;;;7.5;;
69917;SDS011;57203;42.672;23.334;2023-07-13T06:19:47;11.5;;;7.4;;
69917;SDS011;57203;42.672;23.334;2023-07-13T06:20:47;11.3;;;7.1;;
69917;SDS011;57203;42.672;23.334;2023-07-13T06:21:47;11.5;;;6.8;;
69917;SDS011;57203;42.672;23.334;2023-07-13T06:22:48;9.0;;;6.7;;
69917;SDS011;57203;42.672;23.334;2023-07-13T06:23:49;12.5;;;7.3;;
69917;SDS011;57203;42.672;23.334;2023-07-13T06:24:48;11.6;;;6.7;;
69917;SDS011;57203;42.672;23.334;2023-07-13T06:27:49;10.2;;;6.9;;
69917;SDS011;57203;42.672;23.334;2023-07-13T06:28:49;9.6;;;7.0;;
69917;SDS011;57203;42.672;23.334;2023-07-13T06:29:50;10.8;;;7.4;;
69917;SDS011;57203;42.672;23.334;2023-07-13T06:30:50;12.0;;;6.7;;
69917;SDS011;57203;42.672;23.334;2023-07-13T06:31:50;12.6;;;7.2;;
69917;SDS011;57203;42.672;23.334;2023-07-13T06:32:50;11.1;;;7.3;;
69917;SDS011;57203;42.672;23.334;2023-07-13T06:33:51;10.7;;;7.1;;
69917;SDS011;57203;42.672;23.334;2023-07-13T06:35:51;10.8;;;7.8;;
69917;SDS011;57203;42.672;23.334;2023-07-13T06:36:52;11.1;;;6.8;;
69917;SDS011;57203;42.672;23.334;2023-07-13T06:37:52;11.1;;;6.5;;
69917;SDS011;57203;42.672;23.334;2023-07-13T06:38:52;10.5;;;7.3;;
69917;SDS011;57203;42.672;23.334;2023-07-13T06:39:52;11.3;;;7.0;;
69917;SDS011;57203;42.672;23.334;2023-07-13T06:41:53;15.6;;;7.2;;
69917;SDS011;57203;42.672;23.334;2023-07-13T06:42:53;11.5;;;7.3;;
69917;SDS011;57203;42.672;23.334;2023-07-13T06:44:54;11.1;;;6.5;;
69917;SDS011;57203;42.672;23.334;2023-07-13T06:45:54;12.1;;;7.4;;
69917;SDS011;57203;42.672;23.334;2023-07-13T06:46:54;12.1;;;7.3;;
69917;SDS011;57203;42.672;23.334;2023-07-13T06:47:55;13.7;;;6.1;;
69917;SDS011;57203;42.672;23.334;2023-07-13T06:48:55;9.1;;;7.2;;